Time;durP1;ratioP1;P1;durP2;ratioP2;P2;SDS_P1;SDS_P2;PMS_P1;PMS_P2;Temp;Humidity;BMP_temperature;BMP_pressure;BME280_temperature;BME280_humidity;BME280_pressure;Samples;Min_cycle;Max_cycle;Signal;HPM_P1;HPM_P2
2022/06/06 00:02:26;;;;;;;35.92;13.70;;;15.30;99.90;;;;;;5114022;28;20560;-64
2022/06/06 00:04:52;;;;;;;31.60;12.57;;;15.50;99.90;;;;;;5114429;28;20057;-65
2022/06/06 00:07:17;;;;;;;;;;;15.10;99.90;;;;;;5114537;28;20040;-63
2022/06/06 00:09:43;;;;;;;28.73;12.13;;;15.20;99.90;;;;;;5114040;28;19920;-63
2022/06/06 00:12:09;;;;;;;;;;;15.10;99.90;;;;;;5114504;28;20548;-64
2022/06/06 00:14:35;;;;;;;29.27;12.80;;;14.80;99.90;;;;;;5114065;28;19923;-63
2022/06/06 00:17:00;;;;;;;;;;;14.90;99.90;;;;;;5114825;28;20483;-62
2022/06/06 00:19:26;;;;;;;28.05;12.55;;;15.10;99.90;;;;;;5114061;28;19998;-62
2022/06/06 00:21:52;;;;;;;;;;;15.00;99.90;;;;;;5114513;28;20051;-62
2022/06/06 00:24:18;;;;;;;28.50;13.13;;;15.00;99.90;;;;;;5113889;28;19919;-62
2022/06/06 00:26:44;;;;;;;;;;;14.70;99.90;;;;;;5113241;28;20055;-62
2022/06/06 00:29:15;;;;;;;41.42;15.20;;;14.90;99.90;;;;;;5114086;28;19927;-62
2022/06/06 00:37:12;;;;;;;35.50;13.57;;;14.50;99.90;;;;;;5113637;28;20047;-63
2022/06/06 00:39:40;;;;;;;42.63;15.68;;;14.80;99.90;;;;;;5113844;28;20575;-64
2022/06/06 00:42:19;;;;;;;39.83;14.35;;;14.70;99.90;;;;;;5113811;28;20126;-63
2022/06/06 00:44:46;;;;;;;33.67;13.80;;;14.90;99.90;;;;;;5113657;28;20043;-63
2022/06/06 00:47:28;;;;;;;35.33;13.50;;;14.60;99.90;;;;;;5112330;28;20118;-64
2022/06/06 00:50:01;;;;;;;28.98;12.57;;;14.80;99.90;;;;;;5113266;28;20122;-65
2022/06/06 00:52:32;;;;;;;35.72;13.10;;;14.60;99.90;;;;;;5113571;28;20086;-64
2022/06/06 00:55:02;;;;;;;36.20;12.55;;;14.70;99.90;;;;;;5112379;28;20051;-64
2022/06/06 00:57:35;;;;;;;32.90;12.43;;;14.70;99.90;;;;;;5113431;28;20090;-64
2022/06/06 01:00:06;;;;;;;30.83;12.00;;;14.50;99.90;;;;;;5112120;28;20056;-64
2022/06/06 01:02:32;;;;;;;36.08;12.68;;;14.60;99.90;;;;;;5113163;28;20063;-64
2022/06/06 01:05:01;;;;;;;31.75;12.32;;;14.60;99.90;;;;;;5113275;28;20051;-64
2022/06/06 01:07:29;;;;;;;33.55;12.35;;;14.30;99.90;;;;;;5113195;28;20054;-65
2022/06/06 01:09:55;;;;;;;35.72;12.18;;;17.10;99.90;;;;;;5113203;28;20411;-65
2022/06/06 01:12:22;;;;;;;35.47;13.27;;;14.70;99.90;;;;;;5112766;28;20051;-64
2022/06/06 01:14:58;;;;;;;28.67;12.38;;;14.30;99.90;;;;;;5112896;28;20412;-66
2022/06/06 01:17:34;;;;;;;38.80;13.50;;;14.50;99.90;;;;;;5113313;28;20048;-66
2022/06/06 01:20:09;;;;;;;31.67;10.95;;;14.40;99.90;;;;;;5113086;28;20044;-66
2022/06/06 01:22:46;;;;;;;29.52;11.52;;;14.40;99.90;;;;;;5113096;28;20043;-66
2022/06/06 01:25:33;;;;;;;39.55;13.05;;;14.60;99.90;;;;;;5112777;28;20050;-66
2022/06/06 01:28:17;;;;;;;;;;;14.40;99.90;;;;;;5113548;28;20081;-67
2022/06/06 01:30:47;;;;;;;35.55;11.38;;;14.30;99.90;;;;;;5111843;28;19925;-67
2022/06/06 01:33:14;;;;;;;30.95;10.38;;;14.40;99.90;;;;;;5112713;28;20070;-68
2022/06/06 01:35:43;;;;;;;25.40;10.10;;;14.50;99.90;;;;;;5128660;28;20047;-68
2022/06/06 01:38:11;;;;;;;28.40;11.10;;;15.10;99.90;;;;;;5112737;28;20047;-67
2022/06/06 01:41:01;;;;;;;22.83;9.00;;;14.70;99.90;;;;;;5112852;28;20048;-66
2022/06/06 01:43:35;;;;;;;21.13;8.45;;;14.50;99.90;;;;;;5112863;28;20079;-66
2022/06/06 01:46:09;;;;;;;26.13;9.15;;;14.40;99.90;;;;;;5112649;28;20576;-67
2022/06/06 01:48:39;;;;;;;30.08;9.07;;;14.40;99.90;;;;;;5112981;28;20040;-68
2022/06/06 01:51:15;;;;;;;25.23;8.13;;;14.00;99.90;;;;;;5112552;28;20491;-67
2022/06/06 01:53:41;;;;;;;26.63;8.73;;;14.50;99.90;;;;;;5112776;28;20046;-67
2022/06/06 01:56:10;;;;;;;27.85;8.93;;;14.20;99.90;;;;;;5112590;28;20039;-66
2022/06/06 01:58:35;;;;;;;22.15;7.90;;;14.30;99.90;;;;;;5112490;28;20484;-67
2022/06/06 02:01:02;;;;;;;26.05;8.98;;;14.10;99.90;;;;;;5112806;28;20103;-66
2022/06/06 02:03:29;;;;;;;21.65;7.93;;;14.30;99.90;;;;;;5111405;28;20133;-67
2022/06/06 02:05:55;;;;;;;27.40;8.88;;;14.50;99.90;;;;;;5112653;28;20475;-67
2022/06/06 02:08:20;;;;;;;34.25;9.00;;;14.40;99.90;;;;;;5112461;28;20100;-66
2022/06/06 02:10:46;;;;;;;29.55;9.20;;;14.70;99.90;;;;;;5112522;28;20132;-66
2022/06/06 02:13:13;;;;;;;25.45;9.27;;;14.60;99.90;;;;;;5112441;28;20121;-67
2022/06/06 02:15:38;;;;;;;32.33;9.90;;;13.80;99.90;;;;;;5112608;28;20059;-67
2022/06/06 02:18:05;;;;;;;29.02;10.25;;;14.20;99.90;;;;;;5112596;28;20433;-68
2022/06/06 02:20:32;;;;;;;33.90;9.52;;;14.10;99.90;;;;;;5112416;28;20530;-66
2022/06/06 02:22:59;;;;;;;30.52;9.70;;;14.30;99.90;;;;;;5112504;28;20069;-67
2022/06/06 02:25:27;;;;;;;28.17;9.25;;;14.40;99.90;;;;;;5116298;28;20048;-67
2022/06/06 02:27:53;;;;;;;34.42;10.35;;;14.10;99.90;;;;;;5116162;27;20403;-67
2022/06/06 02:30:23;;;;;;;;;;;14.10;99.90;;;;;;5116577;28;20047;-68
2022/06/06 02:32:49;;;;;;;26.17;8.73;;;14.20;99.90;;;;;;5116375;28;20004;-68
2022/06/06 02:35:18;;;;;;;22.63;7.82;;;13.80;99.90;;;;;;5115897;28;20059;-66
2022/06/06 02:37:46;;;;;;;14.80;6.75;;;13.90;99.90;;;;;;5116003;28;20047;-66
2022/06/06 02:40:15;;;;;;;19.73;7.57;;;13.70;99.90;;;;;;5115945;28;20081;-68
2022/06/06 02:42:41;;;;;;;18.45;6.82;;;14.30;99.90;;;;;;5114933;28;20048;-68
2022/06/06 02:45:09;;;;;;;17.80;7.32;;;13.60;99.90;;;;;;5098115;28;20427;-63
2022/06/06 02:47:36;;;;;;;19.67;7.07;;;13.50;99.90;;;;;;5115866;28;20372;-68
2022/06/06 02:50:04;;;;;;;15.82;7.22;;;13.60;99.90;;;;;;5115843;28;20051;-67
2022/06/06 02:52:30;;;;;;;15.93;7.15;;;13.60;99.90;;;;;;5115747;28;20051;-66
2022/06/06 02:54:56;;;;;;;15.07;7.25;;;13.60;99.90;;;;;;5115452;28;20044;-68
2022/06/06 02:57:22;;;;;;;18.35;7.53;;;13.70;99.90;;;;;;5115879;28;20040;-69
2022/06/06 02:59:50;;;;;;;19.77;7.57;;;13.70;99.90;;;;;;5115701;28;20043;-68
2022/06/06 03:02:16;;;;;;;18.35;8.98;;;13.80;99.90;;;;;;5115719;27;20039;-66
2022/06/06 03:04:42;;;;;;;23.48;9.15;;;13.80;99.90;;;;;;5115547;28;20042;-68
2022/06/06 03:07:29;;;;;;;24.95;10.18;;;14.60;99.90;;;;;;5115503;28;20130;-67
2022/06/06 03:10:18;;;;;;;20.75;9.18;;;13.60;99.90;;;;;;5114451;28;20399;-67
2022/06/06 03:13:08;;;;;;;18.52;8.35;;;13.50;99.90;;;;;;5115397;28;20039;-68
2022/06/06 03:22:10;;;;;;;18.58;9.40;;;13.80;99.90;;;;;;5115189;28;20562;-68
2022/06/06 03:24:59;;;;;;;17.48;8.63;;;14.00;99.90;;;;;;5115324;28;20036;-68
2022/06/06 03:27:50;;;;;;;21.00;9.02;;;13.80;99.90;;;;;;5115186;28;20134;-69
2022/06/06 03:30:32;;;;;;;18.67;9.02;;;11.60;99.90;;;;;;5114906;27;20449;-68
2022/06/06 03:33:21;;;;;;;19.15;10.18;;;13.50;99.90;;;;;;5115241;28;20438;-68
2022/06/06 03:36:13;;;;;;;18.42;9.48;;;13.70;99.90;;;;;;5114493;28;20442;-68
2022/06/06 03:38:46;;;;;;;24.27;10.05;;;14.00;99.90;;;;;;5114710;28;20053;-68
2022/06/06 03:41:50;;;;;;;20.48;10.10;;;13.60;99.90;;;;;;5114979;28;20047;-68
2022/06/06 03:44:40;;;;;;;16.92;9.75;;;13.50;99.90;;;;;;5105111;28;20055;-68
2022/06/06 03:47:14;;;;;;;18.58;9.65;;;13.70;99.90;;;;;;5113403;28;20499;-68
2022/06/06 03:49:52;;;;;;;22.45;10.07;;;13.70;99.90;;;;;;5114877;28;20048;-69
2022/06/06 03:52:34;;;;;;;15.48;10.43;;;13.70;99.90;;;;;;5114676;28;20116;-68
2022/06/06 03:55:29;;;;;;;19.95;9.60;;;13.60;99.90;;;;;;5114667;28;20143;-68
2022/06/06 03:57:56;;;;;;;28.90;10.65;;;14.20;99.90;;;;;;5114745;28;20126;-68
2022/06/06 04:00:23;;;;;;;26.30;10.05;;;13.80;99.90;;;;;;5114550;28;20413;-68
2022/06/06 04:02:49;;;;;;;28.50;11.32;;;13.70;99.90;;;;;;5114546;27;20126;-68
2022/06/06 04:05:18;;;;;;;24.08;11.43;;;13.80;99.90;;;;;;5113045;28;20487;-68
2022/06/06 04:07:44;;;;;;;22.40;10.98;;;13.70;99.90;;;;;;5113086;28;20138;-67
2022/06/06 04:10:10;;;;;;;;;;;13.60;99.90;;;;;;5113312;28;20051;-69
2022/06/06 04:13:04;;;;;;;28.80;11.83;;;14.10;99.90;;;;;;5114357;28;20336;-68
2022/06/06 04:16:28;;;;;;;26.85;13.35;;;13.60;99.90;;;;;;5113126;28;20341;-68
2022/06/06 04:19:29;;;;;;;35.10;14.05;;;13.80;99.90;;;;;;5091221;28;20066;-67
2022/06/06 04:22:10;;;;;;;34.63;13.15;;;13.50;99.90;;;;;;5112846;28;20144;-69
2022/06/06 04:24:50;;;;;;;25.55;12.75;;;14.00;99.90;;;;;;5113931;28;20044;-68
2022/06/06 04:27:40;;;;;;;27.75;13.27;;;13.80;99.90;;;;;;5113953;28;20079;-68
2022/06/06 04:30:20;;;;;;;28.70;13.60;;;13.80;99.90;;;;;;5113718;28;20089;-68
2022/06/06 04:33:04;;;;;;;28.73;13.40;;;13.60;99.90;;;;;;5113908;27;20470;-69
2022/06/06 04:35:59;;;;;;;29.02;14.30;;;14.00;99.90;;;;;;5113493;28;20044;-67
2022/06/06 04:38:47;;;;;;;26.48;13.70;;;13.90;99.90;;;;;;5113822;28;20044;-68
2022/06/06 04:41:25;;;;;;;36.40;15.98;;;13.80;99.90;;;;;;5113671;28;20049;-68
2022/06/06 04:44:17;;;;;;;32.38;15.07;;;13.80;99.90;;;;;;5113763;28;20055;-69
2022/06/06 04:47:22;;;;;;;32.30;16.27;;;13.80;99.90;;;;;;5104964;28;20495;-68
2022/06/06 04:49:49;;;;;;;34.40;15.88;;;13.50;99.90;;;;;;5070551;28;20681;-68
2022/06/06 04:52:16;;;;;;;31.77;16.02;;;13.40;99.90;;;;;;5105891;28;20131;-68
2022/06/06 04:54:44;;;;;;;35.90;16.25;;;13.80;99.90;;;;;;5113458;28;20052;-67
2022/06/06 04:57:11;;;;;;;29.77;15.95;;;13.90;99.90;;;;;;5113442;28;20048;-68
2022/06/06 04:59:38;;;;;;;31.75;16.48;;;13.80;99.90;;;;;;5113519;28;20078;-68
2022/06/06 05:02:05;;;;;;;27.58;15.55;;;14.10;99.90;;;;;;5111907;28;20051;-67
2022/06/06 05:04:31;;;;;;;37.60;16.45;;;13.80;99.90;;;;;;5113759;28;20140;-68
2022/06/06 05:07:19;;;;;;;30.70;14.85;;;13.90;99.90;;;;;;5113225;28;20083;-68
2022/06/06 05:10:00;;;;;;;29.70;14.48;;;13.70;99.90;;;;;;5093120;28;20070;-69
2022/06/06 05:13:06;;;;;;;24.98;14.20;;;14.00;99.90;;;;;;5111987;28;20055;-69
2022/06/06 05:15:46;;;;;;;29.48;15.05;;;13.90;99.90;;;;;;5111762;28;20092;-69
2022/06/06 05:18:44;;;;;;;27.15;14.45;;;13.90;99.90;;;;;;5113138;28;20044;-69
2022/06/06 05:21:19;;;;;;;33.90;15.30;;;14.20;99.90;;;;;;5113245;28;20048;-68
2022/06/06 05:24:17;;;;;;;28.52;14.48;;;13.90;99.90;;;;;;5112990;28;20131;-67
2022/06/06 05:26:45;;;;;;;;;;;13.80;99.90;;;;;;5075147;28;20091;-69
2022/06/06 05:29:20;;;;;;;23.15;12.63;;;13.60;99.90;;;;;;5112941;28;19974;-69
2022/06/06 05:31:48;;;;;;;22.40;12.82;;;14.00;99.90;;;;;;5112946;28;20039;-67
2022/06/06 05:34:20;;;;;;;23.38;12.73;;;13.90;99.90;;;;;;5112744;28;20059;-67
2022/06/06 05:37:03;;;;;;;25.85;11.60;;;13.80;99.90;;;;;;5112851;28;20051;-68
2022/06/06 05:40:00;;;;;;;20.08;11.20;;;13.90;99.90;;;;;;5112808;28;20127;-68
2022/06/06 05:42:33;;;;;;;21.53;10.80;;;13.90;99.90;;;;;;5113033;28;20501;-66
2022/06/06 05:45:09;;;;;;;19.65;10.65;;;13.50;99.90;;;;;;5112881;28;20503;-68
2022/06/06 05:47:56;;;;;;;24.35;11.88;;;13.40;99.90;;;;;;5111848;28;20122;-67
2022/06/06 05:51:09;;;;;;;17.17;9.35;;;13.60;99.90;;;;;;5112723;28;20130;-65
2022/06/06 05:54:00;;;;;;;17.52;10.43;;;14.00;99.90;;;;;;5089810;28;20052;-64
2022/06/06 05:56:26;;;;;;;19.02;9.73;;;14.00;99.90;;;;;;5081065;28;20118;-64
2022/06/06 05:59:34;;;;;;;22.10;10.70;;;13.20;99.90;;;;;;5106398;28;20059;-68
2022/06/06 06:02:28;;;;;;;12.95;6.80;;;13.20;99.90;;;;;;5104215;28;20060;-68
2022/06/06 06:05:08;;;;;;;7.35;4.93;;;13.70;99.90;;;;;;5112558;28;20040;-68
2022/06/06 06:08:07;;;;;;;5.05;3.63;;;13.80;99.90;;;;;;5115845;28;20051;-67
2022/06/06 06:10:45;;;;;;;7.45;4.05;;;13.70;99.90;;;;;;5113448;28;20096;-67
2022/06/06 06:13:19;;;;;;;10.65;4.63;;;13.50;99.90;;;;;;5114406;28;20047;-67
2022/06/06 06:15:46;;;;;;;8.88;5.28;;;13.60;99.90;;;;;;5111710;28;20036;-67
2022/06/06 06:19:01;;;;;;;8.85;5.07;;;13.70;99.90;;;;;;5096925;28;20052;-68
2022/06/06 06:21:33;;;;;;;16.05;6.20;;;13.50;99.90;;;;;;5091851;28;20057;-69
2022/06/06 06:24:05;;;;;;;17.25;7.80;;;13.80;99.90;;;;;;5114110;28;20073;-66
2022/06/06 06:26:31;;;;;;;17.08;8.32;;;13.70;99.90;;;;;;5114748;28;20462;-68
2022/06/06 06:29:01;;;;;;;13.82;7.13;;;13.60;99.90;;;;;;5115250;28;20126;-66
2022/06/06 06:31:59;;;;;;;12.07;6.75;;;13.50;99.90;;;;;;5115203;28;20040;-66
2022/06/06 06:34:42;;;;;;;14.48;7.50;;;13.50;99.90;;;;;;5110187;28;20130;-70
2022/06/06 06:37:29;;;;;;;19.58;8.63;;;13.40;99.90;;;;;;5114433;28;20056;-66
2022/06/06 06:40:17;;;;;;;14.68;8.23;;;13.20;99.90;;;;;;5111312;28;20471;-67
2022/06/06 06:43:02;;;;;;;15.52;7.43;;;13.40;99.90;;;;;;5113460;28;20056;-69
2022/06/06 06:45:56;;;;;;;10.50;5.88;;;13.50;99.90;;;;;;5114251;28;20453;-68
2022/06/06 06:48:37;;;;;;;11.93;5.82;;;13.60;99.90;;;;;;5114098;28;20051;-67
2022/06/06 06:51:08;;;;;;;20.38;7.82;;;13.70;99.90;;;;;;5111702;28;20051;-69
2022/06/06 06:53:50;;;;;;;13.98;7.57;;;13.40;99.90;;;;;;5113943;28;20046;-70
2022/06/06 06:56:51;;;;;;;18.17;8.30;;;13.60;99.90;;;;;;5113766;28;20054;-68
2022/06/06 07:08:54;;;;;;;15.98;7.38;;;13.30;99.90;;;;;;5110199;28;20044;-64
2022/06/06 07:11:31;;;;;;;10.75;6.90;;;13.70;99.90;;;;;;5110156;28;20054;-64
2022/06/06 07:14:02;;;;;;;9.68;5.97;;;13.60;99.90;;;;;;5110069;28;20561;-65
2022/06/06 07:16:33;;;;;;;10.88;5.00;;;13.70;99.90;;;;;;5109938;28;20044;-64
2022/06/06 07:19:07;;;;;;;9.98;4.97;;;13.70;99.90;;;;;;5108867;28;20134;-65
2022/06/06 07:21:35;;;;;;;11.65;5.18;;;13.80;99.90;;;;;;5109918;28;20457;-65
2022/06/06 07:24:04;;;;;;;8.77;4.53;;;13.40;99.90;;;;;;5109695;28;20673;-64
2022/06/06 07:26:32;;;;;;;10.40;3.90;;;13.60;99.90;;;;;;5104621;28;20050;-62
2022/06/06 07:28:58;;;;;;;5.55;3.45;;;13.80;99.90;;;;;;5108717;28;20051;-66
2022/06/06 07:31:26;;;;;;;8.27;3.30;;;13.70;99.90;;;;;;5092847;28;20040;-64
2022/06/06 07:34:27;;;;;;;7.15;3.60;;;13.70;99.90;;;;;;5089304;28;20142;-63
2022/06/06 07:37:05;;;;;;;9.02;3.53;;;13.90;99.90;;;;;;5089390;28;20044;-62
2022/06/06 07:40:00;;;;;;;8.77;2.90;;;14.10;99.90;;;;;;5089119;28;20052;-62
2022/06/06 07:42:36;;;;;;;5.55;3.00;;;14.10;99.90;;;;;;5088717;28;20048;-64
2022/06/06 07:45:01;;;;;;;6.00;3.40;;;14.20;99.90;;;;;;5089085;28;20044;-64
2022/06/06 07:48:06;;;;;;;7.18;3.22;;;14.70;99.90;;;;;;5088939;28;20770;-63
2022/06/06 07:50:50;;;;;;;3.40;2.70;;;15.00;99.90;;;;;;5088812;28;20082;-63
2022/06/06 07:53:35;;;;;;;3.42;2.80;;;14.70;99.90;;;;;;5088799;28;20044;-66
2022/06/06 07:56:10;;;;;;;5.60;3.13;;;15.00;99.90;;;;;;5088465;28;20048;-65
2022/06/06 07:59:00;;;;;;;6.53;3.15;;;14.70;99.90;;;;;;5088771;28;20059;-63
2022/06/06 08:01:50;;;;;;;6.40;3.13;;;14.80;99.90;;;;;;5057305;28;20059;-69
2022/06/06 08:04:45;;;;;;;9.93;3.55;;;14.90;99.90;;;;;;5086476;28;20094;-68
2022/06/06 08:07:30;;;;;;;8.38;3.15;;;14.60;99.90;;;;;;5110735;28;20140;-67
2022/06/06 08:10:10;;;;;;;6.95;3.78;;;14.90;99.90;;;;;;5108948;28;20052;-66
2022/06/06 08:13:10;;;;;;;6.25;4.13;;;15.30;99.90;;;;;;5109112;28;20499;-66
2022/06/06 08:15:57;;;;;;;9.63;4.35;;;15.30;99.90;;;;;;5088750;28;20056;-68
2022/06/06 08:18:43;;;;;;;7.07;3.95;;;15.40;99.90;;;;;;5095274;28;20189;-68
2022/06/06 08:21:24;;;;;;;8.85;3.80;;;15.50;99.90;;;;;;5095456;28;20052;-65
2022/06/06 08:23:55;;;;;;;8.63;4.20;;;15.60;99.90;;;;;;5094602;28;20040;-66
2022/06/06 08:26:25;;;;;;;14.43;4.60;;;15.80;99.90;;;;;;5094875;28;20044;-67
2022/06/06 08:28:51;;;;;;;8.73;2.90;;;15.70;99.90;;;;;;5094651;28;20551;-66
2022/06/06 08:31:17;;;;;;;;;;;15.50;99.90;;;;;;5095354;28;20105;-68
2022/06/06 08:33:43;;;;;;;7.05;3.22;;;15.40;99.90;;;;;;5093797;28;20022;-67
2022/06/06 08:36:08;;;;;;;9.38;2.85;;;15.70;99.90;;;;;;5094829;28;20472;-67
2022/06/06 08:39:11;;;;;;;7.45;3.42;;;15.80;99.90;;;;;;5094257;28;20051;-66
2022/06/06 08:41:58;;;;;;;6.82;3.15;;;16.10;99.90;;;;;;5094583;28;20075;-67
2022/06/06 08:44:46;;;;;;;5.10;3.15;;;16.40;99.90;;;;;;5093271;28;20052;-67
2022/06/06 08:47:31;;;;;;;4.78;2.97;;;16.10;99.90;;;;;;5094734;28;20059;-66
2022/06/06 08:53:12;;;;;;;9.70;3.40;;;15.60;99.90;;;;;;5094455;28;20078;-65
2022/06/06 08:56:35;;;;;;;8.32;3.38;;;15.50;99.90;;;;;;5094492;28;20044;-65
2022/06/06 08:59:31;;;;;;;8.07;4.18;;;15.40;99.90;;;;;;5032052;28;20080;-66
2022/06/06 09:02:20;;;;;;;6.30;3.30;;;15.50;99.90;;;;;;5031928;28;20049;-66
2022/06/06 09:05:01;;;;;;;8.00;3.30;;;15.40;99.90;;;;;;5083458;28;20084;-65
2022/06/06 09:07:45;;;;;;;6.07;2.65;;;15.30;99.90;;;;;;5094223;28;20130;-65
2022/06/06 09:10:47;;;;;;;6.68;3.38;;;15.40;99.90;;;;;;5094083;28;20044;-67
2022/06/06 09:13:25;;;;;;;8.43;3.42;;;15.30;99.90;;;;;;5093986;28;20044;-67
2022/06/06 09:16:08;;;;;;;8.88;3.70;;;15.00;99.90;;;;;;5093141;28;20048;-66
2022/06/06 09:19:01;;;;;;;10.38;3.80;;;15.10;99.90;;;;;;5093851;28;20138;-67
2022/06/06 09:21:30;;;;;;;11.60;4.35;;;15.10;99.90;;;;;;5093944;28;20070;-66
2022/06/06 09:24:17;;;;;;;7.65;4.28;;;15.20;99.90;;;;;;5093912;28;20040;-67
2022/06/06 09:26:59;;;;;;;8.52;4.57;;;14.80;99.90;;;;;;5093365;28;20105;-65
2022/06/06 09:30:06;;;;;;;8.55;4.68;;;15.50;99.90;;;;;;5094060;28;20095;-66
2022/06/06 09:32:35;;;;;;;11.70;5.03;;;15.10;99.90;;;;;;5093861;28;20408;-64
2022/06/06 09:35:25;;;;;;;9.63;5.10;;;15.50;99.90;;;;;;5093810;28;20048;-68
2022/06/06 09:38:04;;;;;;;7.60;4.20;;;15.80;99.90;;;;;;5093353;28;20112;-66
2022/06/06 09:40:50;;;;;;;9.52;4.20;;;16.60;99.90;;;;;;5093453;28;20052;-67
2022/06/06 09:43:53;;;;;;;5.90;4.43;;;16.20;99.90;;;;;;5093424;28;20051;-67
2022/06/06 09:46:59;;;;;;;9.32;4.78;;;16.40;99.90;;;;;;5093795;28;20051;-67
2022/06/06 09:49:33;;;;;;;12.45;4.68;;;16.90;99.90;;;;;;5093252;28;20056;-67
2022/06/06 09:52:18;;;;;;;13.85;4.85;;;17.00;99.90;;;;;;5093222;28;20051;-67
2022/06/06 10:01:26;;;;;;;14.60;5.25;;;17.90;99.90;;;;;;5091563;28;20135;-67
2022/06/06 10:04:10;;;;;;;10.00;5.20;;;18.00;99.90;;;;;;5092457;28;20142;-72
2022/06/06 10:07:03;;;;;;;8.20;4.70;;;18.10;99.90;;;;;;5091760;28;20048;-69
2022/06/06 10:09:39;;;;;;;9.77;4.60;;;17.70;99.90;;;;;;5092936;28;20466;-66
2022/06/06 10:12:11;;;;;;;;;;;18.10;99.90;;;;;;5092448;28;20058;-68
2022/06/06 10:15:20;;;;;;;7.32;3.58;;;17.80;99.90;;;;;;5092773;28;19942;-65
2022/06/06 10:18:07;;;;;;;8.85;3.63;;;18.20;99.90;;;;;;5093001;28;20044;-66
2022/06/06 10:20:45;;;;;;;11.07;3.55;;;18.10;99.90;;;;;;5092937;28;20052;-69
2022/06/06 10:23:33;;;;;;;5.70;2.90;;;18.20;99.90;;;;;;5092727;28;20055;-65
2022/06/06 10:26:25;;;;;;;7.05;2.38;;;18.30;99.90;;;;;;5092809;28;20047;-65
2022/06/06 10:29:09;;;;;;;9.55;2.20;;;17.80;99.90;;;;;;5093035;28;20048;-66
2022/06/06 10:31:57;;;;;;;8.98;3.28;;;17.50;99.90;;;;;;5092606;28;20134;-68
2022/06/06 10:34:47;;;;;;;9.15;2.42;;;17.30;99.90;;;;;;5092804;28;20089;-66
2022/06/06 10:37:29;;;;;;;10.18;2.80;;;16.90;99.90;;;;;;5092689;28;20044;-67
2022/06/06 10:40:38;;;;;;;9.48;2.75;;;16.80;99.90;;;;;;5092272;28;20127;-68
2022/06/06 10:43:12;;;;;;;10.60;2.50;;;16.60;99.90;;;;;;5092724;28;20090;-65
2022/06/06 10:45:44;;;;;;;5.85;2.20;;;16.90;99.90;;;;;;5092433;28;20083;-66
2022/06/06 10:48:28;;;;;;;8.85;3.25;;;16.50;99.90;;;;;;5092533;28;20052;-66
2022/06/06 10:51:46;;;;;;;8.93;2.25;;;16.70;99.90;;;;;;5091356;28;20050;-66
2022/06/06 10:54:36;;;;;;;14.07;2.33;;;16.50;99.90;;;;;;5059149;28;20096;-65
2022/06/06 10:57:29;;;;;;;6.45;2.30;;;17.30;99.90;;;;;;5092467;28;20048;-66
2022/06/06 11:00:03;;;;;;;10.35;2.10;;;17.80;99.90;;;;;;5092659;28;20101;-68
2022/06/06 11:02:29;;;;;;;5.15;1.67;;;17.80;99.90;;;;;;5092262;28;20511;-65
2022/06/06 11:04:54;;;;;;;;;;;17.50;99.90;;;;;;5092329;28;20056;-67
2022/06/06 11:07:35;;;;;;;5.25;2.28;;;17.60;99.90;;;;;;5091985;28;20017;-69
2022/06/06 11:10:14;;;;;;;7.63;2.47;;;17.40;99.90;;;;;;5092654;28;20047;-66
2022/06/06 11:13:01;;;;;;;7.25;2.30;;;17.70;99.90;;;;;;5074468;28;20467;-67
2022/06/06 11:15:36;;;;;;;16.02;3.22;;;17.80;99.90;;;;;;5091975;28;20088;-67
2022/06/06 11:18:21;;;;;;;5.43;1.70;;;17.80;99.90;;;;;;5092247;28;20048;-68
2022/06/06 11:20:51;;;;;;;5.18;2.03;;;17.40;99.90;;;;;;5091948;28;20052;-67
2022/06/06 11:23:21;;;;;;;5.10;1.80;;;17.60;99.90;;;;;;5091054;28;20405;-67
2022/06/06 11:25:59;;;;;;;7.68;1.60;;;17.20;99.90;;;;;;5092033;28;20079;-65
2022/06/06 11:28:36;;;;;;;9.57;1.88;;;17.50;99.90;;;;;;5092072;28;20109;-66
2022/06/06 11:31:17;;;;;;;8.82;1.83;;;16.90;99.90;;;;;;5092104;28;20492;-66
2022/06/06 11:34:00;;;;;;;6.88;1.75;;;16.70;99.90;;;;;;5092127;28;20036;-67
2022/06/06 11:36:26;;;;;;;6.22;2.33;;;16.80;99.90;;;;;;5091553;28;20135;-66
2022/06/06 11:39:39;;;;;;;6.38;2.47;;;16.60;99.90;;;;;;5092552;28;20430;-66
2022/06/06 11:42:26;;;;;;;6.38;2.20;;;16.60;99.90;;;;;;5092081;28;20059;-66
2022/06/06 11:44:57;;;;;;;8.00;2.60;;;16.50;99.90;;;;;;5092020;28;20048;-66
2022/06/06 11:47:51;;;;;;;7.20;2.35;;;16.30;99.90;;;;;;5091958;28;20056;-65
2022/06/06 11:50:38;;;;;;;7.70;2.30;;;16.30;99.90;;;;;;5092600;28;20044;-66
2022/06/06 11:53:50;;;;;;;5.60;2.22;;;16.50;99.90;;;;;;5095830;28;20089;-66
2022/06/06 11:57:00;;;;;;;7.55;2.85;;;15.90;99.90;;;;;;5067172;28;20086;-66
2022/06/06 12:00:00;;;;;;;8.82;2.53;;;15.90;99.90;;;;;;5095642;28;20414;-66
2022/06/06 12:02:52;;;;;;;6.13;2.40;;;15.80;99.90;;;;;;5095778;28;20047;-67
2022/06/06 12:05:23;;;;;;;6.75;2.80;;;15.90;99.90;;;;;;5095437;28;20125;-67
2022/06/06 12:07:55;;;;;;;13.50;3.70;;;16.30;99.90;;;;;;5094409;28;20040;-66
2022/06/06 12:10:27;;;;;;;5.28;2.80;;;16.50;99.90;;;;;;5095722;28;20130;-69
2022/06/06 12:13:32;;;;;;;8.63;3.33;;;16.30;99.90;;;;;;5095482;28;20048;-66
2022/06/06 12:16:13;;;;;;;8.43;3.97;;;16.30;99.90;;;;;;5095322;28;20093;-66
2022/06/06 12:18:56;;;;;;;7.90;4.03;;;15.60;99.90;;;;;;5095660;28;20048;-66
2022/06/06 12:22:04;;;;;;;11.68;4.30;;;15.40;99.90;;;;;;5095226;28;20480;-66
2022/06/06 12:24:48;;;;;;;11.38;4.57;;;15.50;99.90;;;;;;5094973;28;20044;-66
2022/06/06 12:27:30;;;;;;;10.57;4.25;;;15.20;99.90;;;;;;5095345;28;20109;-66
2022/06/06 12:30:18;;;;;;;14.38;4.68;;;15.70;99.90;;;;;;5095197;28;20043;-67
2022/06/06 12:33:03;;;;;;;7.80;4.80;;;15.60;99.90;;;;;;5093724;28;20044;-65
2022/06/06 12:35:35;;;;;;;11.00;4.88;;;15.60;99.90;;;;;;5095237;28;20061;-66
2022/06/06 12:38:13;;;;;;;10.57;4.80;;;15.30;99.90;;;;;;5094978;28;20051;-66
2022/06/06 12:40:51;;;;;;;8.25;4.22;;;15.60;99.90;;;;;;5094906;28;20089;-66
2022/06/06 12:43:34;;;;;;;8.90;4.35;;;15.50;99.90;;;;;;5094704;28;20048;-66
2022/06/06 12:46:37;;;;;;;12.63;4.40;;;15.70;99.90;;;;;;5094919;28;20101;-66
2022/06/06 12:49:14;;;;;;;8.35;4.78;;;15.50;99.90;;;;;;5094719;28;20043;-65
2022/06/06 12:52:03;;;;;;;16.33;5.85;;;15.40;99.90;;;;;;5094471;28;20086;-66
2022/06/06 12:58:08;;;;;;;10.73;5.32;;;14.90;99.90;;;;;;5094662;28;20485;-65
2022/06/06 13:03:21;;;;;;;13.10;6.28;;;14.90;99.90;;;;;;5094135;28;20102;-66
2022/06/06 13:06:10;;;;;;;;;;;14.50;99.90;;;;;;5094972;28;20488;-66
2022/06/06 13:08:48;;;;;;;10.48;6.00;;;14.50;99.90;;;;;;5094590;28;20288;-65
2022/06/06 13:11:25;;;;;;;8.90;4.70;;;14.70;99.90;;;;;;5094526;28;20044;-65
2022/06/06 13:14:32;;;;;;;10.45;6.20;;;14.30;99.90;;;;;;5094363;28;20101;-66
2022/06/06 13:17:03;;;;;;;15.15;5.93;;;14.60;99.90;;;;;;5059973;28;20056;-65
2022/06/06 13:19:46;;;;;;;11.63;5.38;;;14.60;99.90;;;;;;5094458;28;20079;-66
2022/06/06 13:22:20;;;;;;;7.05;3.00;;;14.60;99.90;;;;;;5094202;28;20109;-66
2022/06/06 13:25:10;;;;;;;8.10;3.55;;;14.30;99.90;;;;;;5094048;28;20522;-66
2022/06/06 13:27:51;;;;;;;4.75;2.90;;;14.30;99.90;;;;;;5094479;28;20055;-64
2022/06/06 13:30:23;;;;;;;5.57;2.85;;;13.90;99.90;;;;;;5093851;28;20488;-66
2022/06/06 13:33:14;;;;;;;7.88;3.22;;;14.10;99.90;;;;;;5093962;28;20044;-67
2022/06/06 13:35:48;;;;;;;6.43;3.30;;;13.90;99.90;;;;;;5093941;28;20102;-67
2022/06/06 13:38:29;;;;;;;4.25;2.95;;;15.60;99.90;;;;;;5093903;28;20089;-68
2022/06/06 13:41:07;;;;;;;5.72;3.05;;;14.50;99.90;;;;;;5093923;28;20458;-65
2022/06/06 13:43:56;;;;;;;3.88;3.00;;;14.50;99.90;;;;;;5093573;28;20117;-69
2022/06/06 13:46:29;;;;;;;6.00;3.45;;;15.10;99.90;;;;;;5093901;28;20051;-65
2022/06/06 13:49:10;;;;;;;5.97;3.17;;;14.60;99.90;;;;;;5093678;28;20044;-66
2022/06/06 13:52:11;;;;;;;8.20;3.40;;;14.90;99.90;;;;;;5093655;28;20048;-68
2022/06/06 13:54:38;;;;;;;5.72;3.50;;;14.80;99.90;;;;;;5093822;28;20087;-69
2022/06/06 13:57:10;;;;;;;9.98;3.70;;;14.70;99.90;;;;;;5093617;28;20040;-68
2022/06/06 13:59:48;;;;;;;4.72;3.00;;;14.20;99.90;;;;;;5093649;28;20048;-69
2022/06/06 14:02:41;;;;;;;7.10;3.20;;;14.40;99.90;;;;;;5093366;28;20446;-69
2022/06/06 14:05:35;;;;;;;4.25;2.75;;;14.50;99.90;;;;;;5093271;28;20520;-68
2022/06/06 14:08:09;;;;;;;3.60;2.13;;;14.00;99.90;;;;;;5093367;28;20048;-65
2022/06/06 14:10:46;;;;;;;4.15;2.00;;;15.30;99.90;;;;;;5093306;28;20486;-65
2022/06/06 14:13:46;;;;;;;6.18;1.85;;;13.80;99.90;;;;;;5091609;28;20663;-67
2022/06/06 14:16:35;;;;;;;6.20;1.85;;;13.80;99.90;;;;;;5093464;28;20108;-66
2022/06/06 14:19:48;;;;;;;3.55;1.77;;;13.60;99.90;;;;;;5093083;28;20040;-66
2022/06/06 14:22:35;;;;;;;4.90;1.58;;;13.60;99.90;;;;;;5093090;28;20393;-67
2022/06/06 14:25:03;;;;;;;2.58;1.42;;;14.00;99.90;;;;;;5092989;28;20040;-67
2022/06/06 14:27:31;;;;;;;2.67;1.50;;;13.70;99.90;;;;;;5092848;28;20127;-66